createdAt,value
2023-02-04T00:00:48.658Z,1.88
2023-02-04T00:03:16.987Z,1.85
2023-02-04T00:05:46.516Z,1.80
2023-02-04T00:08:14.671Z,2.20
2023-02-04T00:10:42.754Z,1.42
2023-02-04T00:13:10.915Z,1.90
2023-02-04T00:15:39.016Z,1.92
2023-02-04T00:18:08.834Z,2.00
2023-02-04T00:20:37.006Z,2.00
2023-02-04T00:23:06.743Z,1.65
2023-02-04T00:25:34.896Z,2.30
2023-02-04T00:28:04.293Z,2.15
2023-02-04T00:30:32.689Z,2.22
2023-02-04T00:33:01.092Z,2.10
2023-02-04T00:35:29.306Z,2.28
2023-02-04T00:37:57.691Z,1.90
2023-02-04T00:40:27.204Z,2.10
2023-02-04T00:42:55.336Z,2.60
2023-02-04T00:45:23.423Z,2.05
2023-02-04T00:47:51.634Z,2.28
2023-02-04T00:50:19.875Z,2.15
2023-02-04T00:52:48.070Z,2.03
2023-02-04T00:55:18.237Z,2.22
2023-02-04T00:57:48.188Z,2.20
2023-02-04T01:00:17.496Z,1.90
2023-02-04T01:02:45.714Z,2.03
2023-02-04T01:05:13.884Z,1.98
2023-02-04T01:07:42.053Z,1.90
2023-02-04T01:10:10.879Z,2.30
2023-02-04T01:12:39.069Z,2.10
2023-02-04T01:15:09.682Z,1.67
2023-02-04T01:17:37.838Z,1.80
2023-02-04T01:20:06.308Z,2.55
2023-02-04T01:22:34.458Z,1.75
2023-02-04T01:25:02.565Z,2.15
2023-02-04T01:27:30.623Z,2.17
2023-02-04T01:29:58.822Z,2.63
2023-02-04T01:32:28.346Z,2.45
2023-02-04T01:34:57.250Z,2.00
2023-02-04T01:37:25.564Z,1.95
2023-02-04T01:39:53.874Z,2.13
2023-02-04T01:42:22.171Z,1.90
2023-02-04T01:44:51.063Z,2.05
2023-02-04T01:47:19.666Z,2.00
2023-02-04T01:49:53.907Z,2.00
2023-02-04T01:52:23.162Z,2.00
2023-02-04T01:54:51.586Z,2.20
2023-02-04T01:57:19.814Z,2.00
2023-02-04T01:59:49.127Z,1.80
2023-02-04T02:02:44.878Z,1.10
2023-02-04T02:05:17.969Z,1.70
2023-02-04T02:07:46.237Z,2.15
2023-02-04T02:10:16.203Z,1.45
2023-02-04T02:12:45.297Z,1.90
2023-02-04T02:15:14.954Z,1.42
2023-02-04T02:17:43.748Z,1.40
2023-02-04T02:20:16.721Z,1.73
2023-02-04T02:22:57.020Z,2.17
2023-02-04T02:25:26.606Z,1.60
2023-02-04T02:27:55.531Z,2.08
2023-02-04T02:30:23.791Z,1.52
2023-02-04T02:32:53.449Z,1.60
2023-02-04T02:35:21.817Z,1.00
2023-02-04T02:37:49.991Z,1.30
2023-02-04T02:40:18.642Z,1.55
2023-02-04T02:42:51.410Z,1.83
2023-02-04T02:47:50.933Z,1.17
2023-02-04T02:50:22.590Z,1.33
2023-02-04T02:52:50.750Z,1.30
2023-02-04T02:55:21.381Z,1.52
2023-02-04T02:57:52.498Z,1.65
2023-02-04T03:00:23.204Z,1.08
2023-02-04T03:03:01.457Z,1.50
2023-02-04T03:05:32.009Z,1.85
2023-02-04T03:08:01.085Z,1.35
2023-02-04T03:10:29.683Z,1.20
2023-02-04T03:13:00.846Z,1.45
2023-02-04T03:15:29.132Z,2.05
2023-02-04T03:17:57.531Z,1.30
2023-02-04T03:20:26.655Z,1.13
2023-02-04T03:22:58.617Z,2.13
2023-02-04T03:25:28.415Z,1.48
2023-02-04T03:27:58.595Z,1.77
2023-02-04T03:30:29.088Z,1.50
2023-02-04T03:32:57.460Z,2.20
2023-02-04T03:35:25.668Z,1.48
2023-02-04T03:37:53.813Z,1.50
2023-02-04T03:40:22.005Z,1.88
2023-02-04T03:42:50.110Z,1.48
2023-02-04T03:45:18.441Z,1.70
2023-02-04T03:47:47.980Z,1.80
2023-02-04T03:50:16.719Z,1.60
2023-02-04T03:52:45.266Z,1.40
2023-02-04T03:55:13.379Z,1.50
2023-02-04T03:57:42.127Z,1.45
2023-02-04T04:00:11.766Z,1.67
2023-02-04T04:02:41.251Z,1.60
2023-02-04T04:05:11.418Z,1.30
2023-02-04T04:07:39.529Z,1.50
2023-02-04T04:10:08.234Z,1.85
2023-02-04T04:12:36.354Z,1.75
2023-02-04T04:15:04.964Z,2.00
2023-02-04T04:17:33.101Z,1.38
2023-02-04T04:20:01.218Z,1.45
2023-02-04T04:22:30.721Z,1.58
2023-02-04T04:24:58.913Z,1.55
2023-02-04T04:27:27.212Z,1.55
2023-02-04T04:29:55.320Z,1.40
2023-02-04T04:32:23.463Z,1.55
2023-02-04T04:34:51.590Z,1.08
2023-02-04T04:37:19.739Z,1.40
2023-02-04T04:39:49.259Z,1.23
2023-02-04T04:42:17.447Z,1.38
2023-02-04T04:44:45.571Z,0.90
2023-02-04T04:47:13.672Z,1.30
2023-02-04T04:49:41.785Z,1.10
2023-02-04T04:52:10.802Z,1.38
2023-02-04T04:54:56.201Z,1.05
2023-02-04T04:57:25.689Z,1.13
2023-02-04T04:59:53.776Z,1.35
2023-02-04T05:02:21.897Z,1.35
2023-02-04T05:04:50.091Z,1.25
2023-02-04T05:07:18.472Z,1.05
2023-02-04T05:09:46.571Z,1.10
2023-02-04T05:12:14.692Z,1.23
2023-02-04T05:14:44.196Z,1.20
2023-02-04T05:17:12.730Z,1.83
2023-02-04T05:19:40.854Z,1.00
2023-02-04T05:22:08.976Z,1.48
2023-02-04T05:24:37.078Z,1.02
2023-02-04T05:27:05.243Z,0.90
2023-02-04T05:29:33.342Z,1.10
2023-02-04T05:32:02.871Z,1.35
2023-02-04T05:34:31.076Z,1.08
2023-02-04T05:36:59.278Z,1.27
2023-02-04T05:39:27.463Z,0.98
2023-02-04T05:41:55.539Z,1.08
2023-02-04T05:44:23.661Z,0.88
2023-02-04T05:46:54.028Z,0.95
2023-02-04T05:49:24.896Z,1.02
2023-02-04T05:51:53.067Z,1.23
2023-02-04T05:54:21.184Z,1.13
2023-02-04T05:56:49.644Z,0.68
2023-02-04T05:59:17.791Z,0.90
2023-02-04T06:01:45.905Z,1.00
2023-02-04T06:04:15.623Z,0.98
2023-02-04T06:06:45.372Z,1.27
2023-02-04T06:09:13.978Z,1.00
2023-02-04T06:11:42.203Z,0.82
2023-02-04T06:14:10.912Z,0.70
2023-02-04T06:16:39.138Z,0.77
2023-02-04T06:19:07.269Z,0.60
2023-02-04T06:21:35.380Z,0.70
2023-02-04T06:24:05.532Z,0.88
2023-02-04T06:26:33.699Z,0.70
2023-02-04T06:29:01.827Z,1.40
2023-02-04T06:31:30.066Z,1.40
2023-02-04T06:33:58.284Z,2.28
2023-02-04T06:36:26.475Z,0.57
2023-02-04T06:38:54.624Z,0.93
2023-02-04T06:41:24.133Z,0.60
2023-02-04T06:43:52.240Z,1.23
2023-02-04T06:46:20.424Z,0.82
2023-02-04T06:49:06.378Z,0.80
2023-02-04T06:51:34.583Z,0.80
2023-02-04T06:54:02.707Z,0.70
2023-02-04T06:56:32.237Z,0.60
2023-02-04T06:59:01.992Z,0.60
2023-02-04T07:01:31.239Z,1.08
2023-02-04T07:03:59.409Z,0.88
2023-02-04T07:06:27.539Z,1.73
2023-02-04T07:08:55.820Z,0.70
2023-02-04T07:11:23.973Z,0.75
2023-02-04T07:13:53.502Z,0.90
2023-02-04T07:16:21.672Z,0.90
2023-02-04T07:18:49.790Z,1.00
2023-02-04T07:21:17.889Z,1.02
2023-02-04T07:23:46.013Z,1.02
2023-02-04T07:26:14.144Z,1.17
2023-02-04T07:28:43.661Z,1.30
2023-02-04T07:31:13.516Z,1.27
2023-02-04T07:33:41.841Z,1.45
2023-02-04T07:36:10.067Z,1.48
2023-02-04T07:38:38.384Z,1.60
2023-02-04T07:41:06.832Z,1.80
2023-02-04T07:43:35.126Z,1.88
2023-02-04T07:46:03.352Z,1.98
2023-02-04T07:48:32.921Z,1.70
2023-02-04T07:51:01.052Z,2.03
2023-02-04T07:53:29.198Z,1.90
2023-02-04T07:55:57.302Z,2.20
2023-02-04T07:58:25.426Z,2.22
2023-02-04T08:00:53.581Z,2.10
2023-02-04T08:03:21.665Z,2.08
2023-02-04T08:05:51.152Z,1.98
2023-02-04T08:08:19.302Z,2.40
2023-02-04T08:10:47.672Z,2.15
2023-02-04T08:13:16.067Z,2.75
2023-02-04T08:15:44.227Z,1.98
2023-02-04T08:18:12.408Z,1.90
2023-02-04T08:20:40.552Z,2.40
2023-02-04T08:23:10.132Z,2.20
2023-02-04T08:25:38.278Z,2.20
2023-02-04T08:28:06.682Z,2.75
2023-02-04T08:30:35.194Z,2.85
2023-02-04T08:33:03.458Z,2.25
2023-02-04T08:35:31.640Z,2.63
2023-02-04T08:37:59.855Z,2.53
2023-02-04T08:40:29.799Z,2.20
2023-02-04T08:42:58.132Z,2.20
2023-02-04T08:45:26.294Z,2.30
2023-02-04T08:47:54.465Z,2.50
2023-02-04T08:50:22.568Z,2.40
2023-02-04T08:52:50.710Z,2.70
2023-02-04T08:55:18.932Z,2.15
2023-02-04T08:57:48.448Z,2.47
2023-02-04T09:00:17.343Z,2.10
2023-02-04T09:02:45.455Z,1.70
2023-02-04T09:05:13.626Z,1.63
2023-02-04T09:07:41.719Z,2.58
2023-02-04T09:10:10.820Z,1.98
2023-02-04T09:12:39.593Z,2.15
2023-02-04T09:15:11.451Z,1.90
2023-02-04T09:17:39.760Z,1.90
2023-02-04T09:20:08.678Z,1.90
2023-02-04T09:22:37.945Z,1.60
2023-02-04T09:25:06.440Z,1.75
2023-02-04T09:27:34.646Z,1.52
2023-02-04T09:30:02.760Z,1.60
2023-02-04T09:32:32.466Z,1.80
2023-02-04T09:35:00.565Z,1.88
2023-02-04T09:37:29.397Z,1.92
2023-02-04T09:39:57.489Z,1.33
2023-02-04T09:42:27.634Z,2.00
2023-02-04T09:44:55.875Z,1.77
2023-02-04T09:47:26.640Z,1.88
2023-02-04T09:49:56.561Z,1.73
2023-02-04T09:52:25.106Z,1.48
2023-02-04T09:54:53.240Z,1.58
2023-02-04T09:57:22.360Z,1.40
2023-02-04T09:59:52.911Z,1.20
2023-02-04T10:02:26.328Z,1.30
2023-02-04T10:04:59.012Z,1.50
2023-02-04T10:07:27.930Z,1.30
2023-02-04T10:09:56.584Z,1.40
2023-02-04T10:12:24.722Z,1.15
2023-02-04T10:14:53.339Z,1.27
2023-02-04T10:17:23.834Z,1.23
2023-02-04T10:19:51.977Z,1.20
2023-02-04T10:22:23.889Z,1.17
2023-02-04T10:24:52.044Z,1.63
2023-02-04T10:27:20.176Z,1.80
2023-02-04T10:29:57.333Z,1.75
2023-02-04T10:32:30.572Z,1.42
2023-02-04T10:35:00.758Z,1.83
2023-02-04T10:37:32.303Z,1.00
2023-02-04T10:40:00.841Z,1.20
2023-02-04T10:42:30.614Z,1.38
2023-02-04T10:44:59.694Z,1.02
2023-02-04T10:47:31.454Z,1.30
2023-02-04T10:50:04.830Z,1.13
2023-02-04T10:52:39.304Z,1.20
2023-02-04T10:55:14.469Z,1.42
2023-02-04T10:57:44.366Z,1.25
2023-02-04T11:00:18.182Z,1.10
2023-02-04T11:02:49.501Z,1.40
2023-02-04T11:05:19.868Z,1.50
2023-02-04T11:07:50.742Z,1.83
2023-02-04T11:10:21.352Z,1.17
2023-02-04T11:13:02.261Z,1.13
2023-02-04T11:15:42.528Z,1.40
2023-02-04T11:18:13.382Z,1.08
2023-02-04T11:20:42.548Z,1.30
2023-02-04T11:23:37.897Z,1.20
2023-02-04T11:26:09.200Z,0.90
2023-02-04T11:28:46.949Z,1.10
2023-02-04T11:31:26.625Z,1.05
2023-02-04T11:34:14.545Z,0.90
2023-02-04T11:36:57.236Z,1.10
2023-02-04T11:39:33.272Z,1.58
2023-02-04T11:42:02.303Z,1.00
2023-02-04T11:44:31.038Z,0.93
2023-02-04T11:47:00.609Z,0.90
2023-02-04T11:49:28.865Z,1.20
2023-02-04T11:52:08.927Z,0.90
2023-02-04T11:54:38.713Z,0.90
2023-02-04T11:57:06.861Z,1.08
2023-02-04T11:59:34.961Z,0.75
2023-02-04T12:02:09.894Z,0.80
2023-02-04T12:04:38.074Z,0.90
2023-02-04T12:07:06.237Z,0.75
2023-02-04T12:09:34.347Z,1.13
2023-02-04T12:12:05.265Z,0.93
2023-02-04T12:14:35.086Z,0.98
2023-02-04T12:17:03.246Z,0.95
2023-02-04T12:19:31.329Z,1.17
2023-02-04T12:21:59.403Z,1.20
2023-02-04T12:24:27.511Z,1.00
2023-02-04T12:26:56.897Z,1.15
2023-02-04T12:29:26.448Z,1.10
2023-02-04T12:31:54.646Z,1.38
2023-02-04T12:34:22.793Z,1.23
2023-02-04T12:36:50.872Z,1.00
2023-02-04T12:39:18.983Z,1.35
2023-02-04T12:41:47.086Z,1.40
2023-02-04T12:44:15.465Z,1.30
2023-02-04T12:46:45.105Z,1.30
2023-02-04T12:49:13.255Z,1.30
2023-02-04T12:51:41.501Z,1.40
2023-02-04T12:54:09.609Z,1.63
2023-02-04T12:56:37.699Z,1.45
2023-02-04T12:59:05.840Z,1.25
2023-02-04T13:01:34.197Z,1.35
2023-02-04T13:04:03.860Z,1.30
2023-02-04T13:06:31.968Z,1.38
2023-02-04T13:09:00.076Z,1.15
2023-02-04T13:11:28.218Z,1.17
2023-02-04T13:13:56.355Z,1.20
2023-02-04T13:16:24.987Z,1.83
2023-02-04T13:18:53.158Z,1.40
2023-02-04T13:21:22.705Z,1.63
2023-02-04T13:23:50.850Z,1.23
2023-02-04T13:26:19.035Z,1.92
2023-02-04T13:28:47.191Z,1.48
2023-02-04T13:31:15.417Z,1.50
2023-02-04T13:33:43.564Z,1.35
2023-02-04T13:36:11.787Z,1.60
2023-02-04T13:38:41.335Z,1.58
2023-02-04T13:41:09.538Z,1.40
2023-02-04T13:43:37.638Z,1.23
2023-02-04T13:46:06.484Z,1.60
2023-02-04T13:48:36.554Z,1.33
2023-02-04T13:51:05.118Z,1.50
2023-02-04T13:53:33.255Z,1.25
2023-02-04T13:56:02.764Z,1.35
2023-02-04T13:58:30.924Z,1.38
2023-02-04T14:00:59.462Z,1.30
2023-02-04T14:03:28.668Z,1.25
2023-02-04T14:05:57.532Z,1.10
2023-02-04T14:08:25.658Z,1.83
2023-02-04T14:10:53.820Z,1.77
2023-02-04T14:13:23.521Z,1.35
2023-02-04T14:15:51.752Z,1.63
2023-02-04T14:18:21.036Z,1.40
2023-02-04T14:20:49.148Z,1.50
2023-02-04T14:23:17.521Z,1.85
2023-02-04T14:25:45.787Z,1.80
2023-02-04T14:28:14.142Z,1.58
2023-02-04T14:30:43.787Z,1.60
2023-02-04T14:33:13.138Z,2.00
2023-02-04T14:35:41.604Z,1.83
2023-02-04T14:38:11.798Z,1.80
2023-02-04T14:40:40.393Z,1.67
2023-02-04T14:43:11.116Z,1.67
2023-02-04T14:45:40.286Z,1.40
2023-02-04T14:48:11.900Z,1.88
2023-02-04T14:50:40.420Z,1.92
2023-02-04T14:53:09.013Z,1.63
2023-02-04T14:55:37.290Z,1.50
2023-02-04T14:58:05.486Z,1.55
2023-02-04T15:00:34.638Z,2.20
2023-02-04T15:03:03.263Z,1.75
2023-02-04T15:05:32.955Z,1.73
2023-02-04T15:08:01.215Z,2.10
2023-02-04T15:10:30.102Z,1.63
2023-02-04T15:12:59.338Z,2.03
2023-02-04T15:15:27.534Z,1.50
2023-02-04T15:17:56.081Z,1.65
2023-02-04T15:20:25.306Z,2.08
2023-02-04T15:22:56.530Z,1.90
2023-02-04T15:25:25.497Z,1.85
2023-02-04T15:27:53.709Z,1.98
2023-02-04T15:30:22.356Z,1.60
2023-02-04T15:32:50.678Z,2.03
2023-02-04T15:35:19.700Z,1.80
2023-02-04T15:37:47.901Z,1.95
2023-02-04T15:40:17.958Z,1.83
2023-02-04T15:42:46.148Z,1.85
2023-02-04T15:45:14.494Z,1.98
2023-02-04T15:47:42.615Z,1.70
2023-02-04T15:50:12.976Z,1.50
2023-02-04T15:52:41.110Z,1.67
2023-02-04T15:55:10.274Z,1.90
2023-02-04T15:57:40.333Z,1.73
2023-02-04T16:00:09.944Z,1.55
2023-02-04T16:02:38.268Z,1.95
2023-02-04T16:05:08.331Z,2.00
2023-02-04T16:07:37.166Z,1.85
2023-02-04T16:10:05.447Z,1.77
2023-02-04T16:12:33.662Z,1.50
2023-02-04T16:15:03.328Z,1.63
2023-02-04T16:17:32.183Z,1.58
2023-02-04T16:20:01.829Z,1.52
2023-02-04T16:22:29.930Z,1.60
2023-02-04T16:24:58.622Z,1.75
2023-02-04T16:27:27.152Z,1.60
2023-02-04T16:29:56.994Z,1.75
2023-02-04T16:32:27.148Z,1.65
2023-02-04T16:34:56.916Z,1.40
2023-02-04T16:37:25.684Z,1.58
2023-02-04T16:39:54.103Z,1.55
2023-02-04T16:42:22.462Z,1.85
2023-02-04T16:44:51.060Z,1.70
2023-02-04T16:47:19.455Z,1.52
2023-02-04T16:49:49.873Z,1.48
2023-02-04T16:52:18.948Z,1.20
2023-02-04T16:54:47.323Z,1.40
2023-02-04T16:57:15.763Z,1.70
2023-02-04T16:59:44.497Z,1.52
2023-02-04T17:02:13.630Z,1.38
2023-02-04T17:04:42.765Z,1.55
2023-02-04T17:07:12.272Z,1.40
2023-02-04T17:09:40.759Z,1.50
2023-02-04T17:12:09.338Z,1.17
2023-02-04T17:14:39.072Z,1.55
2023-02-04T17:17:07.630Z,1.45
2023-02-04T17:19:35.847Z,1.75
2023-02-04T17:22:04.122Z,1.17
2023-02-04T17:24:36.418Z,1.05
2023-02-04T17:27:05.038Z,1.45
2023-02-04T17:29:33.533Z,1.55
2023-02-04T17:32:01.953Z,1.70
2023-02-04T17:34:30.990Z,1.27
2023-02-04T17:36:59.127Z,1.38
2023-02-04T17:39:27.371Z,2.55
2023-02-04T17:41:58.229Z,1.48
2023-02-04T17:44:27.859Z,1.52
2023-02-04T17:46:57.498Z,1.38
2023-02-04T17:49:26.594Z,1.50
2023-02-04T17:51:58.630Z,1.15
2023-02-04T17:54:27.356Z,1.40
2023-02-04T17:57:02.871Z,1.10
2023-02-04T17:59:31.843Z,1.80
2023-02-04T18:02:01.543Z,1.50
2023-02-04T18:04:31.596Z,1.70
2023-02-04T18:07:00.019Z,1.52
2023-02-04T18:09:29.111Z,1.48
2023-02-04T18:11:58.681Z,1.52
2023-02-04T18:14:29.474Z,1.77
2023-02-04T18:17:00.684Z,1.73
2023-02-04T18:19:32.007Z,1.60
2023-02-04T18:22:00.389Z,1.30
2023-02-04T18:24:36.156Z,1.35
2023-02-04T18:27:17.939Z,1.23
2023-02-04T18:29:48.912Z,1.75
2023-02-04T18:32:21.489Z,1.50
2023-02-04T18:34:51.575Z,1.30
2023-02-04T18:37:32.067Z,1.52
2023-02-04T18:40:25.600Z,1.30
2023-02-04T18:43:05.727Z,1.35
2023-02-04T18:45:34.795Z,1.58
2023-02-04T18:48:22.710Z,1.30
2023-02-04T18:50:52.396Z,1.70
2023-02-04T18:53:25.388Z,1.60
2023-02-04T18:55:55.695Z,1.30
2023-02-04T18:58:31.707Z,1.63
2023-02-04T19:01:02.689Z,1.50
2023-02-04T19:03:35.861Z,1.42
2023-02-04T19:06:05.716Z,1.67
2023-02-04T19:08:42.468Z,1.58
2023-02-04T19:11:35.358Z,1.42
2023-02-04T19:14:19.288Z,1.30
2023-02-04T19:16:48.288Z,1.70
2023-02-04T19:19:45.556Z,1.20
2023-02-04T19:22:21.925Z,1.77
2023-02-04T19:24:54.738Z,1.50
2023-02-04T19:27:31.426Z,1.42
2023-02-04T19:30:04.136Z,1.40
2023-02-04T19:35:20.337Z,1.73
2023-02-04T19:37:55.444Z,1.80
2023-02-04T19:40:33.607Z,1.60
2023-02-04T19:43:23.314Z,1.70
2023-02-04T19:45:53.087Z,1.60
2023-02-04T19:48:34.599Z,2.47
2023-02-04T19:51:08.979Z,2.00
2023-02-04T19:53:38.036Z,2.30
2023-02-04T19:56:29.861Z,2.38
2023-02-04T19:58:59.170Z,1.63
2023-02-04T20:01:30.957Z,1.92
2023-02-04T20:04:01.154Z,1.80
2023-02-04T20:06:34.094Z,1.52
2023-02-04T20:09:08.404Z,2.00
2023-02-04T20:11:51.799Z,1.70
2023-02-04T20:14:38.660Z,1.70
2023-02-04T20:17:32.665Z,1.90
2023-02-04T20:20:17.124Z,1.35
2023-02-04T20:22:48.429Z,1.58
2023-02-04T20:25:40.333Z,1.58
2023-02-04T20:28:24.085Z,1.38
2023-02-04T20:30:54.235Z,1.45
2023-02-04T20:33:30.775Z,1.70
2023-02-04T20:36:30.900Z,1.85
2023-02-04T20:39:25.057Z,1.88
2023-02-04T20:41:53.598Z,1.58
2023-02-04T20:44:30.211Z,1.67
2023-02-04T20:47:13.054Z,1.60
2023-02-04T20:49:44.619Z,2.00
2023-02-04T20:52:51.448Z,1.58
2023-02-04T20:55:27.138Z,1.60
2023-02-04T20:58:03.802Z,1.58
2023-02-04T21:00:35.788Z,1.50
2023-02-04T21:03:20.124Z,1.60
2023-02-04T21:05:51.688Z,1.52
2023-02-04T21:08:35.615Z,1.80
2023-02-04T21:11:04.169Z,1.50
2023-02-04T21:13:33.685Z,1.98
2023-02-04T21:16:02.979Z,2.10
2023-02-04T21:18:34.613Z,1.52
2023-02-04T21:21:07.865Z,1.65
2023-02-04T21:23:37.801Z,1.50
2023-02-04T21:26:06.652Z,1.50
2023-02-04T21:28:36.093Z,1.48
2023-02-04T21:31:05.414Z,1.70
2023-02-04T21:33:34.287Z,1.42
2023-02-04T21:36:02.477Z,1.80
2023-02-04T21:38:32.321Z,1.60
2023-02-04T21:41:00.731Z,1.98
2023-02-04T21:43:28.849Z,1.67
2023-02-04T21:45:57.041Z,1.73
2023-02-04T21:48:25.894Z,1.50
2023-02-04T21:50:55.540Z,1.77
2023-02-04T21:53:23.763Z,1.63
2023-02-04T21:55:53.391Z,1.45
2023-02-04T21:58:21.558Z,1.63
2023-02-04T22:00:49.933Z,1.88
2023-02-04T22:03:18.264Z,1.40
2023-02-04T22:05:46.462Z,1.77
2023-02-04T22:08:14.870Z,1.23
2023-02-04T22:10:43.127Z,1.30
2023-02-04T22:13:19.003Z,1.65
2023-02-04T22:15:48.059Z,1.55
2023-02-04T22:18:16.744Z,1.80
2023-02-04T22:20:44.876Z,1.70
2023-02-04T22:23:13.027Z,1.70
2023-02-04T22:25:41.150Z,1.85
2023-02-04T22:28:09.301Z,1.45
2023-02-04T22:30:39.253Z,1.48
2023-02-04T22:33:14.545Z,1.50
2023-02-04T22:35:42.954Z,1.38
2023-02-04T22:38:11.150Z,1.48
2023-02-04T22:40:39.403Z,1.55
2023-02-04T22:43:07.606Z,1.40
2023-02-04T22:45:40.156Z,1.48
2023-02-04T22:48:08.589Z,2.35
2023-02-04T22:50:36.700Z,1.42
2023-02-04T22:53:04.873Z,1.90
2023-02-04T22:55:34.476Z,1.55
2023-02-04T22:58:02.739Z,2.08
2023-02-04T23:00:30.934Z,1.52
2023-02-04T23:03:00.511Z,1.50
2023-02-04T23:05:28.651Z,1.73
2023-02-04T23:07:56.809Z,1.60
2023-02-04T23:10:24.955Z,1.85
2023-02-04T23:12:53.324Z,1.90
2023-02-04T23:15:21.530Z,1.67
2023-02-04T23:17:49.692Z,2.30
2023-02-04T23:20:19.983Z,1.58
2023-02-04T23:22:48.300Z,1.60
2023-02-04T23:25:16.611Z,1.98
2023-02-04T23:27:44.803Z,1.65
2023-02-04T23:30:14.602Z,2.20
2023-02-04T23:32:43.185Z,2.15
2023-02-04T23:35:11.376Z,1.83
2023-02-04T23:37:40.948Z,2.10
2023-02-04T23:40:09.951Z,1.63
2023-02-04T23:42:38.124Z,1.40
2023-02-04T23:45:07.122Z,1.30
2023-02-04T23:47:35.291Z,1.63
2023-02-04T23:50:03.543Z,1.60
2023-02-04T23:52:31.788Z,1.70
2023-02-04T23:55:01.297Z,1.83
2023-02-04T23:57:29.457Z,1.80
2023-02-04T23:59:57.645Z,1.70
